DLH3LX EIDW-EDDM
Flight info
| Callsign | DLH3LX |
|---|---|
| Flight time | 2h 0m |
| Altitude | 39000 |
| Route | ENDEQ3J ENDEQ Q36 ALAVA Z195 MALUD UL975 WAL M16 DOLAS DCT NAVPI DCT DODEN DCT TABUM DCT BOMBI T104 ROKIL ROKIL1B |
| Aircraft | A319/M-SDE2E3FGIJ1LORWXY/HB1 |
Departure
| Time | 2026-05-05 17:36 |
|---|---|
| Airport | Dublin Airport (EIDW) |
Arrival
| Time | 2026-05-05 19:37 |
|---|---|
| Airport | Munich Airport (EDDM) |
| Time | Latitude | Longitude | Altitude | Speed | Heading |
|---|---|---|---|---|---|
| 2026-05-05 17:10 | 53.42662 | -6.24700 | 211 ft | 0 kts | 147° |
| 2026-05-05 17:25 | 53.42677 | -6.24716 | 216 ft | 4 kts | 146° |
| 2026-05-05 17:26 | 53.42700 | -6.24740 | 219 ft | 4 kts | 162° |
| 2026-05-05 17:26 | 53.42717 | -6.24743 | 211 ft | 4 kts | 245° |
| 2026-05-05 17:26 | 53.42726 | -6.24706 | 214 ft | 2 kts | 246° |
| 2026-05-05 17:26 | 53.42727 | -6.24703 | 211 ft | 0 kts | 246° |
| 2026-05-05 17:30 | 53.42726 | -6.24705 | 211 ft | 1 kts | 246° |
| 2026-05-05 17:30 | 53.42711 | -6.24756 | 211 ft | 8 kts | 239° |
| 2026-05-05 17:30 | 53.42675 | -6.24841 | 211 ft | 9 kts | 234° |
| 2026-05-05 17:31 | 53.42672 | -6.24935 | 218 ft | 9 kts | 315° |
| 2026-05-05 17:31 | 53.42729 | -6.24991 | 213 ft | 10 kts | 328° |
| 2026-05-05 17:31 | 53.42786 | -6.25064 | 216 ft | 11 kts | 304° |
| 2026-05-05 17:31 | 53.42795 | -6.25192 | 211 ft | 11 kts | 277° |
| 2026-05-05 17:32 | 53.42848 | -6.25282 | 215 ft | 12 kts | 337° |
| 2026-05-05 17:32 | 53.42927 | -6.25339 | 217 ft | 13 kts | 336° |
| 2026-05-05 17:32 | 53.43013 | -6.25402 | 214 ft | 14 kts | 336° |
| 2026-05-05 17:32 | 53.43105 | -6.25468 | 215 ft | 15 kts | 337° |
| 2026-05-05 17:33 | 53.43204 | -6.25539 | 211 ft | 16 kts | 336° |
| 2026-05-05 17:33 | 53.43308 | -6.25616 | 216 ft | 17 kts | 336° |
| 2026-05-05 17:33 | 53.43402 | -6.25628 | 212 ft | 14 kts | 46° |
| 2026-05-05 17:33 | 53.43402 | -6.25469 | 215 ft | 14 kts | 96° |
| 2026-05-05 17:34 | 53.43393 | -6.25298 | 211 ft | 15 kts | 95° |
| 2026-05-05 17:34 | 53.43383 | -6.25118 | 211 ft | 16 kts | 95° |
| 2026-05-05 17:34 | 53.43373 | -6.24930 | 215 ft | 17 kts | 95° |
| 2026-05-05 17:34 | 53.43362 | -6.24735 | 211 ft | 15 kts | 96° |
| 2026-05-05 17:35 | 53.43372 | -6.24575 | 213 ft | 13 kts | 45° |
| 2026-05-05 17:35 | 53.43444 | -6.24553 | 212 ft | 10 kts | 5° |
| 2026-05-05 17:35 | 53.43510 | -6.24550 | 213 ft | 9 kts | 340° |
| 2026-05-05 17:35 | 53.43529 | -6.24650 | 214 ft | 12 kts | 275° |
| 2026-05-05 17:36 | 53.43554 | -6.25121 | 211 ft | 81 kts | 275° |
| 2026-05-05 17:36 | 53.43630 | -6.26464 | 214 ft | 147 kts | 276° |
| 2026-05-05 17:36 | 53.43750 | -6.28306 | 665 ft | 160 kts | 277° |
| 2026-05-05 17:36 | 53.43991 | -6.30108 | 1403 ft | 161 kts | 305° |
| 2026-05-05 17:37 | 53.44828 | -6.31452 | 1893 ft | 177 kts | 321° |
| 2026-05-05 17:37 | 53.45737 | -6.33044 | 2297 ft | 201 kts | 310° |
| 2026-05-05 17:37 | 53.46818 | -6.34667 | 2883 ft | 215 kts | 335° |
| 2026-05-05 17:37 | 53.48256 | -6.35123 | 3940 ft | 211 kts | 0° |
| 2026-05-05 17:38 | 53.49720 | -6.35073 | 4971 ft | 211 kts | 1° |
| 2026-05-05 17:38 | 53.51191 | -6.34806 | 5842 ft | 218 kts | 18° |
| 2026-05-05 17:38 | 53.52375 | -6.33158 | 6583 ft | 235 kts | 57° |
| 2026-05-05 17:38 | 53.52835 | -6.30366 | 7014 ft | 264 kts | 84° |
| 2026-05-05 17:39 | 53.52871 | -6.27166 | 7655 ft | 281 kts | 91° |
| 2026-05-05 17:39 | 53.52756 | -6.23854 | 8575 ft | 286 kts | 93° |
| 2026-05-05 17:39 | 53.52606 | -6.20496 | 9559 ft | 290 kts | 93° |
| 2026-05-05 17:39 | 53.52468 | -6.17080 | 10340 ft | 301 kts | 92° |
| 2026-05-05 17:40 | 53.52349 | -6.13431 | 10685 ft | 325 kts | 91° |
| 2026-05-05 17:40 | 53.52250 | -6.09522 | 11141 ft | 342 kts | 91° |
| 2026-05-05 17:40 | 53.51949 | -6.05518 | 11867 ft | 351 kts | 102° |
| 2026-05-05 17:40 | 53.51384 | -6.01503 | 12672 ft | 356 kts | 103° |
| 2026-05-05 17:41 | 53.50804 | -5.97434 | 13462 ft | 361 kts | 103° |
| 2026-05-05 17:41 | 53.50211 | -5.93309 | 14193 ft | 366 kts | 103° |
| 2026-05-05 17:41 | 53.49614 | -5.89185 | 14883 ft | 370 kts | 103° |
| 2026-05-05 17:41 | 53.48990 | -5.84907 | 15603 ft | 374 kts | 103° |
| 2026-05-05 17:42 | 53.48391 | -5.80639 | 16303 ft | 378 kts | 102° |
| 2026-05-05 17:42 | 53.47831 | -5.76298 | 17009 ft | 382 kts | 101° |
| 2026-05-05 17:42 | 53.47294 | -5.71900 | 17712 ft | 387 kts | 101° |
| 2026-05-05 17:42 | 53.46758 | -5.67454 | 18401 ft | 391 kts | 101° |
| 2026-05-05 17:43 | 53.46210 | -5.62962 | 19002 ft | 395 kts | 101° |
| 2026-05-05 17:43 | 53.45655 | -5.58491 | 19597 ft | 399 kts | 102° |
| 2026-05-05 17:43 | 53.45075 | -5.53917 | 20197 ft | 403 kts | 102° |
| 2026-05-05 17:43 | 53.44577 | -5.49273 | 20796 ft | 406 kts | 95° |
| 2026-05-05 17:44 | 53.44447 | -5.44579 | 21688 ft | 401 kts | 91° |
| 2026-05-05 17:44 | 53.44339 | -5.39892 | 22377 ft | 403 kts | 92° |
| 2026-05-05 17:44 | 53.44221 | -5.35170 | 22991 ft | 407 kts | 92° |
| 2026-05-05 17:44 | 53.44093 | -5.30405 | 23586 ft | 411 kts | 92° |
| 2026-05-05 17:45 | 53.43960 | -5.25593 | 24085 ft | 415 kts | 92° |
| 2026-05-05 17:45 | 53.43828 | -5.20751 | 24586 ft | 418 kts | 92° |
| 2026-05-05 17:45 | 53.43698 | -5.15870 | 25086 ft | 420 kts | 92° |
| 2026-05-05 17:45 | 53.43563 | -5.10954 | 25563 ft | 423 kts | 93° |
| 2026-05-05 17:46 | 53.43415 | -5.06007 | 26045 ft | 426 kts | 93° |
| 2026-05-05 17:46 | 53.43258 | -5.01029 | 26522 ft | 429 kts | 93° |
| 2026-05-05 17:46 | 53.43092 | -4.96019 | 26992 ft | 431 kts | 93° |
| 2026-05-05 17:46 | 53.42922 | -4.90981 | 27450 ft | 434 kts | 94° |
| 2026-05-05 17:47 | 53.42749 | -4.85912 | 27911 ft | 437 kts | 94° |
| 2026-05-05 17:47 | 53.42573 | -4.80812 | 28367 ft | 439 kts | 94° |
| 2026-05-05 17:47 | 53.42397 | -4.75681 | 28820 ft | 442 kts | 94° |
| 2026-05-05 17:47 | 53.42223 | -4.70531 | 29261 ft | 445 kts | 94° |
| 2026-05-05 17:48 | 53.42048 | -4.65337 | 29700 ft | 448 kts | 94° |
| 2026-05-05 17:48 | 53.41873 | -4.60111 | 30102 ft | 451 kts | 94° |
| 2026-05-05 17:48 | 53.41695 | -4.54843 | 30432 ft | 454 kts | 94° |
| 2026-05-05 17:48 | 53.41510 | -4.49544 | 30777 ft | 457 kts | 94° |
| 2026-05-05 17:49 | 53.41318 | -4.44218 | 31134 ft | 459 kts | 94° |
| 2026-05-05 17:49 | 53.41122 | -4.38872 | 31473 ft | 461 kts | 94° |
| 2026-05-05 17:49 | 53.40924 | -4.33500 | 31864 ft | 462 kts | 94° |
| 2026-05-05 17:49 | 53.40725 | -4.28137 | 32363 ft | 460 kts | 94° |
| 2026-05-05 17:50 | 53.40523 | -4.22792 | 32837 ft | 459 kts | 94° |
| 2026-05-05 17:50 | 53.40318 | -4.17461 | 33317 ft | 458 kts | 94° |
| 2026-05-05 17:50 | 53.40111 | -4.12142 | 33803 ft | 457 kts | 95° |
| 2026-05-05 17:50 | 53.39901 | -4.06844 | 34266 ft | 455 kts | 95° |
| 2026-05-05 17:51 | 53.39687 | -4.01569 | 34680 ft | 453 kts | 95° |
| 2026-05-05 17:51 | 53.39578 | -3.96306 | 35040 ft | 453 kts | 88° |
| 2026-05-05 17:51 | 53.39820 | -3.91038 | 35379 ft | 454 kts | 85° |
| 2026-05-05 17:51 | 53.40098 | -3.85776 | 35717 ft | 453 kts | 85° |
| 2026-05-05 17:52 | 53.40371 | -3.80512 | 36048 ft | 453 kts | 85° |
| 2026-05-05 17:52 | 53.40637 | -3.75254 | 36369 ft | 453 kts | 85° |
| 2026-05-05 17:52 | 53.40894 | -3.70006 | 36678 ft | 452 kts | 85° |
| 2026-05-05 17:52 | 53.41146 | -3.64753 | 36979 ft | 452 kts | 85° |
| 2026-05-05 17:53 | 53.41263 | -3.59494 | 37264 ft | 451 kts | 93° |
| 2026-05-05 17:53 | 53.41048 | -3.54246 | 37559 ft | 451 kts | 95° |
| 2026-05-05 17:53 | 53.40817 | -3.49020 | 37843 ft | 450 kts | 95° |
| 2026-05-05 17:53 | 53.40588 | -3.43777 | 38118 ft | 450 kts | 95° |
| 2026-05-05 17:54 | 53.40358 | -3.38545 | 38384 ft | 450 kts | 95° |
| 2026-05-05 17:54 | 53.40123 | -3.33326 | 38643 ft | 450 kts | 95° |
| 2026-05-05 17:54 | 53.39883 | -3.28099 | 38850 ft | 450 kts | 95° |
| 2026-05-05 17:54 | 53.39640 | -3.22870 | 39000 ft | 451 kts | 95° |
| 2026-05-05 17:55 | 53.39394 | -3.17629 | 39050 ft | 452 kts | 95° |
| 2026-05-05 17:55 | 53.38920 | -3.07129 | 39054 ft | 452 kts | 94° |
| 2026-05-05 17:56 | 53.38542 | -2.96622 | 39054 ft | 452 kts | 94° |
| 2026-05-05 17:56 | 53.38173 | -2.86131 | 39057 ft | 452 kts | 94° |
| 2026-05-05 17:57 | 53.37767 | -2.75628 | 39034 ft | 451 kts | 94° |
| 2026-05-05 17:57 | 53.37340 | -2.65140 | 39040 ft | 452 kts | 95° |
| 2026-05-05 17:58 | 53.36910 | -2.54633 | 39040 ft | 452 kts | 95° |
| 2026-05-05 17:58 | 53.36472 | -2.44119 | 39047 ft | 452 kts | 95° |
| 2026-05-05 17:59 | 53.36023 | -2.33683 | 39050 ft | 452 kts | 95° |
| 2026-05-05 17:59 | 53.35395 | -2.23226 | 39052 ft | 451 kts | 101° |
| 2026-05-05 18:00 | 53.34339 | -2.12869 | 39047 ft | 451 kts | 101° |
| 2026-05-05 18:00 | 53.33267 | -2.02515 | 39045 ft | 452 kts | 101° |
| 2026-05-05 18:01 | 53.32194 | -1.92156 | 39043 ft | 452 kts | 101° |
| 2026-05-05 18:01 | 53.31113 | -1.81798 | 39034 ft | 452 kts | 101° |
| 2026-05-05 18:02 | 53.30018 | -1.71453 | 39033 ft | 452 kts | 101° |
| 2026-05-05 18:02 | 53.28910 | -1.61093 | 39033 ft | 452 kts | 101° |
| 2026-05-05 18:03 | 53.27801 | -1.50751 | 39031 ft | 452 kts | 101° |
| 2026-05-05 18:03 | 53.26677 | -1.40413 | 39032 ft | 452 kts | 102° |
| 2026-05-05 18:04 | 53.25544 | -1.30080 | 39034 ft | 452 kts | 102° |
| 2026-05-05 18:04 | 53.24404 | -1.19754 | 39019 ft | 452 kts | 102° |
| 2026-05-05 18:05 | 53.23267 | -1.09500 | 39022 ft | 452 kts | 102° |
| 2026-05-05 18:05 | 53.22112 | -0.99195 | 39020 ft | 452 kts | 102° |
| 2026-05-05 18:06 | 53.20941 | -0.88887 | 39036 ft | 452 kts | 102° |
| 2026-05-05 18:06 | 53.19762 | -0.78588 | 39042 ft | 452 kts | 102° |
| 2026-05-05 18:07 | 53.18576 | -0.68281 | 39046 ft | 452 kts | 102° |
| 2026-05-05 18:07 | 53.17386 | -0.57976 | 39048 ft | 452 kts | 102° |
| 2026-05-05 18:08 | 53.16186 | -0.47692 | 39051 ft | 452 kts | 103° |
| 2026-05-05 18:08 | 53.14972 | -0.37404 | 39051 ft | 452 kts | 103° |
| 2026-05-05 18:09 | 53.13752 | -0.27123 | 39048 ft | 452 kts | 103° |
| 2026-05-05 18:09 | 53.12520 | -0.16848 | 39048 ft | 452 kts | 103° |
| 2026-05-05 18:10 | 53.11280 | -0.06580 | 39051 ft | 452 kts | 103° |
| 2026-05-05 18:10 | 53.10034 | 0.03685 | 39017 ft | 452 kts | 103° |
| 2026-05-05 18:11 | 53.08779 | 0.13937 | 39024 ft | 452 kts | 103° |
| 2026-05-05 18:11 | 53.07524 | 0.24177 | 39019 ft | 452 kts | 103° |
| 2026-05-05 18:12 | 53.06260 | 0.34412 | 39016 ft | 452 kts | 103° |
| 2026-05-05 18:12 | 53.04977 | 0.44623 | 39014 ft | 452 kts | 103° |
| 2026-05-05 18:13 | 53.03688 | 0.54840 | 39015 ft | 452 kts | 103° |
| 2026-05-05 18:13 | 53.02389 | 0.65043 | 39015 ft | 451 kts | 104° |
| 2026-05-05 18:14 | 53.01091 | 0.75164 | 39011 ft | 451 kts | 104° |
| 2026-05-05 18:14 | 52.99778 | 0.85340 | 39009 ft | 450 kts | 104° |
| 2026-05-05 18:15 | 52.98455 | 0.95495 | 39009 ft | 450 kts | 104° |
| 2026-05-05 18:15 | 52.96667 | 1.05394 | 39006 ft | 447 kts | 112° |
| 2026-05-05 18:16 | 52.94477 | 1.15057 | 39000 ft | 448 kts | 112° |
| 2026-05-05 18:16 | 52.92643 | 1.23150 | 38999 ft | 448 kts | 112° |
| 2026-05-05 18:17 | 52.90451 | 1.32813 | 39002 ft | 448 kts | 112° |
| 2026-05-05 18:17 | 52.88251 | 1.42467 | 38998 ft | 448 kts | 112° |
| 2026-05-05 18:18 | 52.86038 | 1.52096 | 38992 ft | 448 kts | 113° |
| 2026-05-05 18:18 | 52.83810 | 1.61724 | 38993 ft | 448 kts | 113° |
| 2026-05-05 18:19 | 52.81578 | 1.71348 | 38990 ft | 448 kts | 113° |
| 2026-05-05 18:19 | 52.79343 | 1.80968 | 38992 ft | 448 kts | 113° |
| 2026-05-05 18:20 | 52.77097 | 1.90578 | 38985 ft | 448 kts | 114° |
| 2026-05-05 18:20 | 52.74841 | 2.00175 | 38990 ft | 448 kts | 114° |
| 2026-05-05 18:21 | 52.72580 | 2.09754 | 38995 ft | 447 kts | 114° |
| 2026-05-05 18:21 | 52.70314 | 2.19315 | 38991 ft | 446 kts | 114° |
| 2026-05-05 18:22 | 52.68054 | 2.28813 | 38992 ft | 446 kts | 114° |
| 2026-05-05 18:22 | 52.65784 | 2.38310 | 38992 ft | 445 kts | 114° |
| 2026-05-05 18:23 | 52.63508 | 2.47795 | 38983 ft | 445 kts | 114° |
| 2026-05-05 18:23 | 52.61240 | 2.57199 | 38981 ft | 445 kts | 114° |
| 2026-05-05 18:24 | 52.58952 | 2.66648 | 38977 ft | 444 kts | 114° |
| 2026-05-05 18:24 | 52.56658 | 2.76063 | 38988 ft | 444 kts | 115° |
| 2026-05-05 18:25 | 52.54261 | 2.85394 | 38976 ft | 441 kts | 121° |
| 2026-05-05 18:25 | 52.51319 | 2.94226 | 38968 ft | 441 kts | 122° |
| 2026-05-05 18:26 | 52.48365 | 3.03041 | 38957 ft | 440 kts | 122° |
| 2026-05-05 18:26 | 52.45404 | 3.11831 | 38970 ft | 440 kts | 121° |
| 2026-05-05 18:27 | 52.42447 | 3.20592 | 38964 ft | 439 kts | 122° |
| 2026-05-05 18:27 | 52.39484 | 3.29345 | 38964 ft | 439 kts | 122° |
| 2026-05-05 18:28 | 52.35037 | 3.42448 | 38957 ft | 439 kts | 122° |
| 2026-05-05 18:28 | 52.32055 | 3.51152 | 38943 ft | 439 kts | 122° |
| 2026-05-05 18:29 | 52.29069 | 3.59848 | 38947 ft | 439 kts | 122° |
| 2026-05-05 18:29 | 52.26085 | 3.68542 | 38950 ft | 439 kts | 122° |
| 2026-05-05 18:30 | 52.23098 | 3.77215 | 38951 ft | 439 kts | 122° |
| 2026-05-05 18:30 | 52.20098 | 3.85882 | 38941 ft | 439 kts | 123° |
| 2026-05-05 18:31 | 52.17088 | 3.94538 | 38928 ft | 439 kts | 122° |
| 2026-05-05 18:31 | 52.14066 | 4.03180 | 38930 ft | 439 kts | 122° |
| 2026-05-05 18:32 | 52.11037 | 4.11818 | 38929 ft | 439 kts | 122° |
| 2026-05-05 18:32 | 52.08010 | 4.20445 | 38923 ft | 440 kts | 122° |
| 2026-05-05 18:33 | 52.04975 | 4.29075 | 38925 ft | 440 kts | 122° |
| 2026-05-05 18:33 | 52.01926 | 4.37688 | 38909 ft | 440 kts | 122° |
| 2026-05-05 18:34 | 51.98876 | 4.46293 | 38910 ft | 440 kts | 122° |
| 2026-05-05 18:34 | 51.95820 | 4.54886 | 38907 ft | 440 kts | 122° |
| 2026-05-05 18:35 | 51.92751 | 4.63451 | 38907 ft | 440 kts | 123° |
| 2026-05-05 18:35 | 51.89681 | 4.72016 | 38907 ft | 439 kts | 123° |
| 2026-05-05 18:36 | 51.86608 | 4.80568 | 38908 ft | 439 kts | 123° |
| 2026-05-05 18:36 | 51.83533 | 4.89112 | 38904 ft | 439 kts | 123° |
| 2026-05-05 18:37 | 51.80449 | 4.97634 | 38908 ft | 439 kts | 123° |
| 2026-05-05 18:37 | 51.77354 | 5.06139 | 38909 ft | 439 kts | 123° |
| 2026-05-05 18:38 | 51.74254 | 5.14625 | 38907 ft | 439 kts | 123° |
| 2026-05-05 18:38 | 51.71152 | 5.23106 | 38908 ft | 439 kts | 123° |
| 2026-05-05 18:39 | 51.68036 | 5.31553 | 38890 ft | 438 kts | 124° |
| 2026-05-05 18:39 | 51.64676 | 5.39718 | 38888 ft | 436 kts | 128° |
| 2026-05-05 18:40 | 51.61180 | 5.47689 | 38888 ft | 436 kts | 128° |
| 2026-05-05 18:40 | 51.57708 | 5.55674 | 38889 ft | 435 kts | 127° |
| 2026-05-05 18:41 | 51.54297 | 5.63641 | 38887 ft | 435 kts | 127° |
| 2026-05-05 18:41 | 51.50871 | 5.71655 | 38889 ft | 435 kts | 127° |
| 2026-05-05 18:42 | 51.47433 | 5.79647 | 38878 ft | 435 kts | 128° |
| 2026-05-05 18:42 | 51.43987 | 5.87613 | 38884 ft | 435 kts | 128° |
| 2026-05-05 18:43 | 51.40536 | 5.95564 | 38886 ft | 434 kts | 127° |
| 2026-05-05 18:43 | 51.37091 | 6.03499 | 38884 ft | 434 kts | 128° |
| 2026-05-05 18:44 | 51.33637 | 6.11429 | 38887 ft | 434 kts | 128° |
| 2026-05-05 18:44 | 51.30173 | 6.19343 | 38885 ft | 434 kts | 128° |
| 2026-05-05 18:45 | 51.26711 | 6.27234 | 38876 ft | 434 kts | 128° |
| 2026-05-05 18:45 | 51.23237 | 6.35115 | 38880 ft | 434 kts | 128° |
| 2026-05-05 18:46 | 51.19763 | 6.42983 | 38882 ft | 434 kts | 128° |
| 2026-05-05 18:46 | 51.16287 | 6.50843 | 38883 ft | 434 kts | 128° |
| 2026-05-05 18:47 | 51.12805 | 6.58685 | 38859 ft | 433 kts | 128° |
| 2026-05-05 18:47 | 51.09323 | 6.66508 | 38848 ft | 433 kts | 128° |
| 2026-05-05 18:48 | 51.05840 | 6.74307 | 38854 ft | 433 kts | 128° |
| 2026-05-05 18:48 | 51.02350 | 6.82108 | 38854 ft | 433 kts | 128° |
| 2026-05-05 18:49 | 50.98859 | 6.89879 | 38856 ft | 433 kts | 128° |
| 2026-05-05 18:49 | 50.95355 | 6.97640 | 38856 ft | 432 kts | 128° |
| 2026-05-05 18:50 | 50.91847 | 7.05388 | 38857 ft | 432 kts | 128° |
| 2026-05-05 18:50 | 50.88341 | 7.13128 | 38847 ft | 432 kts | 129° |
| 2026-05-05 18:51 | 50.84728 | 7.20722 | 38850 ft | 431 kts | 132° |
| 2026-05-05 18:51 | 50.80843 | 7.27928 | 38851 ft | 430 kts | 134° |
| 2026-05-05 18:52 | 50.76909 | 7.35053 | 38851 ft | 430 kts | 134° |
| 2026-05-05 18:52 | 50.73024 | 7.42235 | 38846 ft | 430 kts | 133° |
| 2026-05-05 18:53 | 50.69163 | 7.49468 | 38836 ft | 431 kts | 133° |
| 2026-05-05 18:53 | 50.65309 | 7.56689 | 38838 ft | 430 kts | 133° |
| 2026-05-05 18:54 | 50.61462 | 7.63833 | 38833 ft | 430 kts | 133° |
| 2026-05-05 18:54 | 50.57562 | 7.71047 | 38835 ft | 430 kts | 133° |
| 2026-05-05 18:55 | 50.53681 | 7.78210 | 38842 ft | 430 kts | 133° |
| 2026-05-05 18:55 | 50.49818 | 7.85306 | 38844 ft | 430 kts | 133° |
| 2026-05-05 18:56 | 50.45905 | 7.92483 | 38835 ft | 430 kts | 134° |
| 2026-05-05 18:56 | 50.42045 | 7.99565 | 38846 ft | 430 kts | 134° |
| 2026-05-05 18:57 | 50.38161 | 8.06688 | 38846 ft | 430 kts | 134° |
| 2026-05-05 18:57 | 50.34278 | 8.13787 | 38848 ft | 430 kts | 134° |
| 2026-05-05 18:58 | 50.30381 | 8.20889 | 38854 ft | 430 kts | 134° |
| 2026-05-05 18:58 | 50.26483 | 8.27964 | 38860 ft | 430 kts | 134° |
| 2026-05-05 18:59 | 50.22572 | 8.35030 | 38857 ft | 430 kts | 134° |
| 2026-05-05 18:59 | 50.18663 | 8.42092 | 38863 ft | 430 kts | 134° |
| 2026-05-05 19:00 | 50.15387 | 8.47998 | 38825 ft | 430 kts | 134° |
| 2026-05-05 19:00 | 50.11471 | 8.55037 | 38824 ft | 429 kts | 134° |
| 2026-05-05 19:01 | 50.07556 | 8.62059 | 38820 ft | 430 kts | 134° |
| 2026-05-05 19:01 | 50.03630 | 8.69073 | 38820 ft | 430 kts | 134° |
| 2026-05-05 19:02 | 49.99705 | 8.76071 | 38835 ft | 430 kts | 134° |
| 2026-05-05 19:02 | 49.95770 | 8.83060 | 38832 ft | 430 kts | 134° |
| 2026-05-05 19:03 | 49.91828 | 8.90042 | 38855 ft | 430 kts | 134° |
| 2026-05-05 19:03 | 49.87885 | 8.97011 | 38864 ft | 430 kts | 134° |
| 2026-05-05 19:04 | 49.83942 | 9.03968 | 38857 ft | 430 kts | 134° |
| 2026-05-05 19:04 | 49.79995 | 9.10915 | 38850 ft | 430 kts | 135° |
| 2026-05-05 19:05 | 49.78003 | 9.14407 | 38708 ft | 438 kts | 135° |
| 2026-05-05 19:05 | 49.75962 | 9.17975 | 38488 ft | 446 kts | 135° |
| 2026-05-05 19:05 | 49.73906 | 9.21572 | 38203 ft | 447 kts | 135° |
| 2026-05-05 19:05 | 49.71849 | 9.25168 | 37922 ft | 445 kts | 134° |
| 2026-05-05 19:06 | 49.69804 | 9.28740 | 37645 ft | 442 kts | 134° |
| 2026-05-05 19:06 | 49.67774 | 9.32286 | 37371 ft | 439 kts | 134° |
| 2026-05-05 19:06 | 49.65761 | 9.35795 | 37102 ft | 435 kts | 134° |
| 2026-05-05 19:06 | 49.63757 | 9.39273 | 36833 ft | 432 kts | 134° |
| 2026-05-05 19:07 | 49.61796 | 9.42676 | 36575 ft | 428 kts | 134° |
| 2026-05-05 19:07 | 49.59828 | 9.46090 | 36218 ft | 423 kts | 134° |
| 2026-05-05 19:07 | 49.57884 | 9.49461 | 35727 ft | 418 kts | 134° |
| 2026-05-05 19:07 | 49.55958 | 9.52792 | 35234 ft | 415 kts | 134° |
| 2026-05-05 19:08 | 49.54046 | 9.56095 | 34750 ft | 411 kts | 134° |
| 2026-05-05 19:08 | 49.52155 | 9.59361 | 34264 ft | 408 kts | 133° |
| 2026-05-05 19:08 | 49.50275 | 9.62603 | 33765 ft | 404 kts | 133° |
| 2026-05-05 19:08 | 49.48409 | 9.65810 | 33244 ft | 400 kts | 133° |
| 2026-05-05 19:09 | 49.46565 | 9.68976 | 32779 ft | 395 kts | 133° |
| 2026-05-05 19:09 | 49.44743 | 9.72102 | 32315 ft | 390 kts | 133° |
| 2026-05-05 19:09 | 49.42940 | 9.75191 | 31855 ft | 386 kts | 133° |
| 2026-05-05 19:09 | 49.41157 | 9.78243 | 31409 ft | 382 kts | 133° |
| 2026-05-05 19:10 | 49.39392 | 9.81259 | 30972 ft | 378 kts | 133° |
| 2026-05-05 19:10 | 49.37619 | 9.84285 | 30527 ft | 375 kts | 133° |
| 2026-05-05 19:10 | 49.35907 | 9.87204 | 30118 ft | 371 kts | 134° |
| 2026-05-05 19:10 | 49.34190 | 9.90129 | 29667 ft | 369 kts | 134° |
| 2026-05-05 19:11 | 49.32483 | 9.93033 | 29257 ft | 364 kts | 134° |
| 2026-05-05 19:11 | 49.30794 | 9.95906 | 28860 ft | 361 kts | 134° |
| 2026-05-05 19:11 | 49.29121 | 9.98751 | 28469 ft | 357 kts | 134° |
| 2026-05-05 19:11 | 49.27449 | 10.01589 | 28093 ft | 362 kts | 134° |
| 2026-05-05 19:12 | 49.25734 | 10.04487 | 27698 ft | 378 kts | 134° |
| 2026-05-05 19:12 | 49.23910 | 10.07555 | 27261 ft | 397 kts | 134° |
| 2026-05-05 19:12 | 49.22043 | 10.10701 | 26821 ft | 401 kts | 134° |
| 2026-05-05 19:12 | 49.20180 | 10.13855 | 26363 ft | 400 kts | 134° |
| 2026-05-05 19:13 | 49.18320 | 10.17004 | 25907 ft | 398 kts | 134° |
| 2026-05-05 19:13 | 49.16460 | 10.20146 | 25427 ft | 402 kts | 134° |
| 2026-05-05 19:13 | 49.14569 | 10.23329 | 24967 ft | 405 kts | 134° |
| 2026-05-05 19:13 | 49.12666 | 10.26494 | 24819 ft | 404 kts | 135° |
| 2026-05-05 19:14 | 49.10739 | 10.29623 | 24872 ft | 405 kts | 136° |
| 2026-05-05 19:14 | 49.08793 | 10.32739 | 24873 ft | 406 kts | 136° |
| 2026-05-05 19:14 | 49.06839 | 10.35852 | 24874 ft | 406 kts | 136° |
| 2026-05-05 19:14 | 49.04887 | 10.38956 | 24873 ft | 406 kts | 136° |
| 2026-05-05 19:15 | 49.02934 | 10.42062 | 24871 ft | 406 kts | 136° |
| 2026-05-05 19:15 | 49.00984 | 10.45171 | 24879 ft | 406 kts | 136° |
| 2026-05-05 19:15 | 48.99044 | 10.48277 | 24680 ft | 402 kts | 136° |
| 2026-05-05 19:15 | 48.97121 | 10.51352 | 24092 ft | 400 kts | 136° |
| 2026-05-05 19:16 | 48.95204 | 10.54415 | 23568 ft | 399 kts | 136° |
| 2026-05-05 19:16 | 48.93291 | 10.57463 | 23039 ft | 397 kts | 136° |
| 2026-05-05 19:16 | 48.91384 | 10.60494 | 22475 ft | 396 kts | 136° |
| 2026-05-05 19:16 | 48.89484 | 10.63512 | 21938 ft | 394 kts | 136° |
| 2026-05-05 19:17 | 48.87599 | 10.66509 | 21418 ft | 392 kts | 136° |
| 2026-05-05 19:17 | 48.85719 | 10.69496 | 20898 ft | 390 kts | 136° |
| 2026-05-05 19:17 | 48.83848 | 10.72459 | 20383 ft | 387 kts | 136° |
| 2026-05-05 19:17 | 48.81985 | 10.75399 | 19883 ft | 385 kts | 136° |
| 2026-05-05 19:18 | 48.80133 | 10.78315 | 19392 ft | 383 kts | 136° |
| 2026-05-05 19:18 | 48.78290 | 10.81208 | 18902 ft | 380 kts | 136° |
| 2026-05-05 19:18 | 48.76457 | 10.84079 | 18421 ft | 377 kts | 136° |
| 2026-05-05 19:18 | 48.74636 | 10.86932 | 17922 ft | 375 kts | 136° |
| 2026-05-05 19:19 | 48.72828 | 10.89764 | 17416 ft | 373 kts | 136° |
| 2026-05-05 19:19 | 48.71033 | 10.92568 | 17116 ft | 371 kts | 136° |
| 2026-05-05 19:19 | 48.69234 | 10.95374 | 16962 ft | 371 kts | 137° |
| 2026-05-05 19:19 | 48.67438 | 10.98179 | 16815 ft | 370 kts | 137° |
| 2026-05-05 19:20 | 48.65669 | 11.00943 | 16836 ft | 362 kts | 137° |
| 2026-05-05 19:20 | 48.63923 | 11.03666 | 16837 ft | 360 kts | 137° |
| 2026-05-05 19:20 | 48.62180 | 11.06373 | 16838 ft | 359 kts | 137° |
| 2026-05-05 19:20 | 48.60437 | 11.09072 | 16840 ft | 359 kts | 137° |
| 2026-05-05 19:21 | 48.58697 | 11.11766 | 16752 ft | 356 kts | 137° |
| 2026-05-05 19:21 | 48.56842 | 11.14189 | 16243 ft | 351 kts | 143° |
| 2026-05-05 19:21 | 48.55241 | 11.16974 | 15774 ft | 356 kts | 123° |
| 2026-05-05 19:21 | 48.54072 | 11.20278 | 15399 ft | 357 kts | 120° |
| 2026-05-05 19:22 | 48.52974 | 11.23635 | 15028 ft | 356 kts | 119° |
| 2026-05-05 19:22 | 48.51885 | 11.26978 | 14642 ft | 355 kts | 120° |
| 2026-05-05 19:22 | 48.50789 | 11.30246 | 14293 ft | 353 kts | 120° |
| 2026-05-05 19:22 | 48.49653 | 11.33516 | 13934 ft | 351 kts | 121° |
| 2026-05-05 19:23 | 48.48483 | 11.36791 | 13566 ft | 349 kts | 122° |
| 2026-05-05 19:23 | 48.47318 | 11.39993 | 13166 ft | 347 kts | 122° |
| 2026-05-05 19:23 | 48.46152 | 11.43170 | 12767 ft | 346 kts | 122° |
| 2026-05-05 19:23 | 48.44992 | 11.46332 | 12378 ft | 344 kts | 122° |
| 2026-05-05 19:24 | 48.43908 | 11.49541 | 11986 ft | 345 kts | 114° |
| 2026-05-05 19:24 | 48.43286 | 11.53033 | 11608 ft | 347 kts | 100° |
| 2026-05-05 19:24 | 48.43227 | 11.56663 | 11230 ft | 348 kts | 86° |
| 2026-05-05 19:24 | 48.43514 | 11.60231 | 10864 ft | 347 kts | 84° |
| 2026-05-05 19:25 | 48.43808 | 11.63865 | 10514 ft | 341 kts | 84° |
| 2026-05-05 19:25 | 48.44086 | 11.67354 | 10270 ft | 332 kts | 84° |
| 2026-05-05 19:25 | 48.44353 | 11.70756 | 10027 ft | 323 kts | 85° |
| 2026-05-05 19:25 | 48.44610 | 11.74073 | 9786 ft | 315 kts | 85° |
| 2026-05-05 19:26 | 48.44858 | 11.77308 | 9529 ft | 307 kts | 85° |
| 2026-05-05 19:26 | 48.45100 | 11.80482 | 9182 ft | 303 kts | 85° |
| 2026-05-05 19:26 | 48.45335 | 11.83576 | 8839 ft | 299 kts | 85° |
| 2026-05-05 19:26 | 48.45568 | 11.86670 | 8512 ft | 295 kts | 85° |
| 2026-05-05 19:27 | 48.45799 | 11.89709 | 8175 ft | 288 kts | 84° |
| 2026-05-05 19:27 | 48.46021 | 11.92657 | 7905 ft | 278 kts | 84° |
| 2026-05-05 19:27 | 48.46234 | 11.95494 | 7659 ft | 268 kts | 84° |
| 2026-05-05 19:27 | 48.46441 | 11.98252 | 7411 ft | 264 kts | 84° |
| 2026-05-05 19:28 | 48.46644 | 12.00985 | 7155 ft | 262 kts | 84° |
| 2026-05-05 19:28 | 48.46845 | 12.03705 | 6916 ft | 261 kts | 84° |
| 2026-05-05 19:28 | 48.47046 | 12.06417 | 6673 ft | 260 kts | 84° |
| 2026-05-05 19:28 | 48.47246 | 12.09117 | 6432 ft | 259 kts | 84° |
| 2026-05-05 19:29 | 48.47444 | 12.11807 | 6193 ft | 258 kts | 84° |
| 2026-05-05 19:29 | 48.47642 | 12.14491 | 5937 ft | 257 kts | 84° |
| 2026-05-05 19:29 | 48.47836 | 12.17145 | 5683 ft | 251 kts | 84° |
| 2026-05-05 19:29 | 48.48006 | 12.19703 | 5552 ft | 240 kts | 88° |
| 2026-05-05 19:30 | 48.47638 | 12.22079 | 5420 ft | 232 kts | 123° |
| 2026-05-05 19:30 | 48.46509 | 12.23719 | 5296 ft | 225 kts | 158° |
| 2026-05-05 19:30 | 48.45023 | 12.24363 | 5173 ft | 221 kts | 178° |
| 2026-05-05 19:30 | 48.43565 | 12.23974 | 5069 ft | 211 kts | 214° |
| 2026-05-05 19:31 | 48.42482 | 12.22540 | 4996 ft | 207 kts | 232° |
| 2026-05-05 19:31 | 48.41554 | 12.20879 | 5002 ft | 207 kts | 234° |
| 2026-05-05 19:31 | 48.40647 | 12.19192 | 5003 ft | 207 kts | 234° |
| 2026-05-05 19:31 | 48.39748 | 12.17492 | 5004 ft | 207 kts | 237° |
| 2026-05-05 19:32 | 48.39186 | 12.15536 | 5001 ft | 204 kts | 262° |
| 2026-05-05 19:32 | 48.39022 | 12.13438 | 5004 ft | 200 kts | 265° |
| 2026-05-05 19:32 | 48.38874 | 12.11369 | 5005 ft | 196 kts | 265° |
| 2026-05-05 19:32 | 48.38730 | 12.09398 | 4936 ft | 186 kts | 265° |
| 2026-05-05 19:33 | 48.38589 | 12.07491 | 4774 ft | 180 kts | 265° |
| 2026-05-05 19:33 | 48.38452 | 12.05640 | 4528 ft | 176 kts | 265° |
| 2026-05-05 19:33 | 48.38319 | 12.03834 | 4293 ft | 172 kts | 265° |
| 2026-05-05 19:33 | 48.38187 | 12.02065 | 4066 ft | 169 kts | 265° |
| 2026-05-05 19:34 | 48.38058 | 12.00325 | 3847 ft | 166 kts | 265° |
| 2026-05-05 19:34 | 48.37929 | 11.98603 | 3625 ft | 165 kts | 265° |
| 2026-05-05 19:34 | 48.37801 | 11.96889 | 3410 ft | 165 kts | 265° |
| 2026-05-05 19:35 | 48.37547 | 11.93504 | 2970 ft | 156 kts | 266° |
| 2026-05-05 19:35 | 48.37429 | 11.91942 | 2774 ft | 144 kts | 265° |
| 2026-05-05 19:35 | 48.37320 | 11.90489 | 2587 ft | 136 kts | 265° |
| 2026-05-05 19:35 | 48.37215 | 11.89094 | 2410 ft | 133 kts | 265° |
| 2026-05-05 19:36 | 48.37113 | 11.87709 | 2224 ft | 134 kts | 264° |
| 2026-05-05 19:36 | 48.37007 | 11.86313 | 2055 ft | 135 kts | 264° |
| 2026-05-05 19:36 | 48.36901 | 11.84914 | 1845 ft | 133 kts | 264° |
| 2026-05-05 19:36 | 48.36794 | 11.83526 | 1697 ft | 134 kts | 264° |
| 2026-05-05 19:37 | 48.36687 | 11.82107 | 1539 ft | 139 kts | 264° |
| 2026-05-05 19:37 | 48.36580 | 11.80697 | 1473 ft | 122 kts | 263° |
| 2026-05-05 19:37 | 48.36515 | 11.79909 | 1485 ft | 35 kts | 257° |
| 2026-05-05 19:37 | 48.36453 | 11.79710 | 1482 ft | 11 kts | 235° |
| 2026-05-05 19:38 | 48.36432 | 11.79666 | 1485 ft | 5 kts | 233° |
| 2026-05-05 19:38 | 48.36409 | 11.79620 | 1475 ft | 6 kts | 233° |
| 2026-05-05 19:38 | 48.36382 | 11.79563 | 1485 ft | 7 kts | 234° |
| 2026-05-05 19:38 | 48.36349 | 11.79496 | 1485 ft | 9 kts | 233° |
| 2026-05-05 19:39 | 48.36311 | 11.79419 | 1485 ft | 10 kts | 233° |
| 2026-05-05 19:39 | 48.36265 | 11.79333 | 1476 ft | 11 kts | 223° |
| 2026-05-05 19:39 | 48.36190 | 11.79298 | 1485 ft | 12 kts | 175° |
| 2026-05-05 19:39 | 48.36103 | 11.79313 | 1481 ft | 11 kts | 173° |
| 2026-05-05 19:40 | 48.36043 | 11.79324 | 1485 ft | 9 kts | 173° |
| 2026-05-05 19:40 | 48.35977 | 11.79335 | 1486 ft | 10 kts | 173° |
| 2026-05-05 19:40 | 48.35909 | 11.79369 | 1485 ft | 11 kts | 152° |
| 2026-05-05 19:40 | 48.35831 | 11.79388 | 1485 ft | 12 kts | 173° |
| 2026-05-05 19:41 | 48.35745 | 11.79403 | 1485 ft | 13 kts | 173° |
| 2026-05-05 19:41 | 48.35651 | 11.79419 | 1485 ft | 14 kts | 173° |
| 2026-05-05 19:41 | 48.35550 | 11.79437 | 1485 ft | 15 kts | 174° |
| 2026-05-05 19:41 | 48.35478 | 11.79449 | 1485 ft | 16 kts | 173° |
| 2026-05-05 19:42 | 48.35330 | 11.79475 | 1485 ft | 16 kts | 173° |
| 2026-05-05 19:42 | 48.35279 | 11.79450 | 1471 ft | 7 kts | 263° |
| 2026-05-05 19:42 | 48.35273 | 11.79375 | 1485 ft | 8 kts | 263° |
| 2026-05-05 19:42 | 48.35271 | 11.79337 | 1473 ft | 0 kts | 263° |